Time,TemperatureF,DewpointF,PressureIn,WindDirection,WindDirectionDegrees,WindSpeedMPH,WindSpeedGustMPH,Humidity,HourlyPrecipIn,Conditions,Clouds,dailyrainin,SoftwareType,DateUTC
2013-03-11 00:00:00,63.5,59.9,29.94,North,0,0.0,0.0,88,0.00,,,0.00,WUHU21623XXSP,2013-03-11 05:00:00,
2013-03-11 00:05:00,63.3,59.8,29.93,North,0,0.0,0.0,88,0.00,,,0.00,WUHU21623XXSP,2013-03-11 05:05:00,
2013-03-11 00:10:00,63.3,59.8,29.92,North,0,0.0,0.0,88,0.00,,,0.00,WUHU21623XXSP,2013-03-11 05:10:00,
2013-03-11 00:15:00,63.3,59.8,29.92,North,0,0.0,0.0,88,0.00,,,0.00,WUHU21623XXSP,2013-03-11 05:15:00,
2013-03-11 00:20:00,63.3,59.8,29.91,North,0,0.0,0.0,88,0.00,,,0.00,WUHU21623XXSP,2013-03-11 05:20:00,
2013-03-11 00:25:00,63.1,59.9,29.91,North,0,0.0,0.0,89,0.00,,,0.00,WUHU21623XXSP,2013-03-11 05:25:00,
2013-03-11 00:30:00,63.1,59.9,29.92,North,0,0.0,0.0,89,0.00,,,0.00,WUHU21623XXSP,2013-03-11 05:30:00,
2013-03-11 00:35:00,63.1,59.9,29.92,North,0,0.0,0.0,89,0.00,,,0.00,WUHU21623XXSP,2013-03-11 05:35:00,
2013-03-11 00:40:00,63.1,59.9,29.92,North,0,0.0,0.0,89,0.00,,,0.00,WUHU21623XXSP,2013-03-11 05:40:00,
2013-03-11 00:45:00,63.0,59.7,29.92,North,0,0.0,0.0,89,0.00,,,0.00,WUHU21623XXSP,2013-03-11 05:45:00,
2013-03-11 00:50:00,63.0,59.7,29.93,North,0,0.0,0.0,89,0.00,,,0.00,WUHU21623XXSP,2013-03-11 05:50:00,
2013-03-11 00:55:00,62.8,59.7,29.93,North,0,0.0,0.0,89,0.00,,,0.00,WUHU21623XXSP,2013-03-11 05:55:00,
2013-03-11 01:00:00,63.0,59.7,29.92,North,0,0.0,0.0,89,0.00,,,0.00,WUHU21623XXSP,2013-03-11 06:00:00,
2013-03-11 01:05:00,63.0,59.7,29.93,North,0,0.0,0.0,89,0.00,,,0.00,WUHU21623XXSP,2013-03-11 06:05:00,
2013-03-11 01:10:00,62.8,59.6,29.93,North,0,0.0,0.0,89,0.00,,,0.00,WUHU21623XXSP,2013-03-11 06:10:00,
2013-03-11 01:15:00,62.8,59.6,29.93,North,0,0.0,0.0,89,0.00,,,0.00,WUHU21623XXSP,2013-03-11 06:15:00,
2013-03-11 01:20:00,62.8,59.6,29.93,North,0,0.0,0.0,89,0.00,,,0.00,WUHU21623XXSP,2013-03-11 06:20:00,
2013-03-11 01:25:00,62.8,59.6,29.93,North,0,0.0,0.0,89,0.00,,,0.00,WUHU21623XXSP,2013-03-11 06:25:00,
2013-03-11 01:30:00,62.8,59.6,29.93,North,0,0.0,0.0,89,0.00,,,0.00,WUHU21623XXSP,2013-03-11 06:30:00,
2013-03-11 01:35:00,62.8,59.9,29.93,North,0,0.0,0.0,90,0.00,,,0.00,WUHU21623XXSP,2013-03-11 06:35:00,
2013-03-11 01:40:00,62.8,59.9,29.94,North,0,0.0,0.0,90,0.00,,,0.00,WUHU21623XXSP,2013-03-11 06:40:00,
2013-03-11 01:45:00,62.8,59.9,29.93,North,0,0.0,0.0,90,0.00,,,0.00,WUHU21623XXSP,2013-03-11 06:45:00,
2013-03-11 01:50:00,62.8,59.9,29.93,North,0,0.0,0.0,90,0.00,,,0.00,WUHU21623XXSP,2013-03-11 06:50:00,
2013-03-11 01:55:00,62.8,59.9,29.93,North,0,0.0,0.0,90,0.00,,,0.00,WUHU21623XXSP,2013-03-11 06:55:00,
2013-03-11 02:00:00,63.0,60.1,29.93,North,0,0.0,0.0,90,0.00,,,0.00,WUHU21623XXSP,2013-03-11 07:00:00,
2013-03-11 02:05:00,63.1,60.3,29.93,North,0,0.0,0.0,90,0.00,,,0.00,WUHU21623XXSP,2013-03-11 07:05:00,
2013-03-11 02:10:00,63.1,60.3,29.93,North,0,0.0,0.0,90,0.00,,,0.00,WUHU21623XXSP,2013-03-11 07:10:00,
2013-03-11 02:15:00,63.1,60.3,29.93,North,0,0.0,0.0,90,0.00,,,0.00,WUHU21623XXSP,2013-03-11 07:15:00,
2013-03-11 02:20:00,63.3,60.4,29.93,North,0,0.0,0.0,90,0.00,,,0.00,WUHU21623XXSP,2013-03-11 07:20:00,
2013-03-11 02:25:00,63.3,60.4,29.92,North,0,0.0,0.0,90,0.00,,,0.00,WUHU21623XXSP,2013-03-11 07:25:00,
2013-03-11 02:30:00,63.5,60.6,29.92,North,0,0.0,0.0,90,0.00,,,0.00,WUHU21623XXSP,2013-03-11 07:30:00,
2013-03-11 02:35:00,63.7,60.6,29.92,North,0,0.0,0.0,90,0.00,,,0.00,WUHU21623XXSP,2013-03-11 07:35:00,
2013-03-11 02:40:00,63.7,60.8,29.92,North,0,0.0,0.0,90,0.00,,,0.00,WUHU21623XXSP,2013-03-11 07:40:00,
2013-03-11 02:45:00,63.7,60.8,29.92,North,0,0.0,0.0,90,0.00,,,0.00,WUHU21623XXSP,2013-03-11 07:45:00,
2013-03-11 02:50:00,63.9,61.0,29.91,North,0,0.0,0.0,90,0.00,,,0.00,WUHU21623XXSP,2013-03-11 07:50:00,
2013-03-11 02:55:00,64.0,61.2,29.91,North,0,0.0,0.0,90,0.00,,,0.00,WUHU21623XXSP,2013-03-11 07:55:00,
2013-03-11 03:00:00,64.0,61.2,29.91,North,0,0.0,0.0,90,0.00,,,0.00,WUHU21623XXSP,2013-03-11 08:00:00,
2013-03-11 03:05:00,64.0,61.2,29.91,North,0,0.0,0.0,90,0.00,,,0.00,WUHU21623XXSP,2013-03-11 08:05:00,
2013-03-11 03:10:00,64.0,61.2,29.90,North,0,0.0,0.0,90,0.00,,,0.00,WUHU21623XXSP,2013-03-11 08:10:00,
2013-03-11 03:15:00,64.0,61.2,29.90,North,0,0.0,0.0,90,0.00,,,0.00,WUHU21623XXSP,2013-03-11 08:15:00,
2013-03-11 03:20:00,64.0,61.2,29.90,North,0,0.0,0.0,90,0.00,,,0.00,WUHU21623XXSP,2013-03-11 08:20:00,
2013-03-11 03:25:00,64.0,61.4,29.89,North,0,0.0,0.0,91,0.00,,,0.00,WUHU21623XXSP,2013-03-11 08:25:00,
2013-03-11 03:30:00,64.0,61.4,29.89,North,0,0.0,0.0,91,0.00,,,0.00,WUHU21623XXSP,2013-03-11 08:30:00,
2013-03-11 03:35:00,63.9,61.3,29.89,North,0,0.0,0.0,91,0.00,,,0.00,WUHU21623XXSP,2013-03-11 08:35:00,
2013-03-11 03:40:00,63.7,61.1,29.89,North,0,0.0,0.0,91,0.00,,,0.00,WUHU21623XXSP,2013-03-11 08:40:00,
2013-03-11 03:45:00,63.7,61.1,29.88,North,0,0.0,0.0,91,0.00,,,0.00,WUHU21623XXSP,2013-03-11 08:45:00,
2013-03-11 03:50:00,63.7,61.1,29.88,North,0,0.0,0.0,91,0.00,,,0.00,WUHU21623XXSP,2013-03-11 08:50:00,
2013-03-11 03:55:00,63.7,61.4,29.88,North,0,0.0,0.0,92,0.00,,,0.00,WUHU21623XXSP,2013-03-11 08:55:00,
2013-03-11 04:00:00,63.7,61.4,29.88,North,0,0.0,0.0,92,0.00,,,0.00,WUHU21623XXSP,2013-03-11 09:00:00,
2013-03-11 04:05:00,63.5,61.2,29.88,North,0,0.0,0.0,92,0.00,,,0.00,WUHU21623XXSP,2013-03-11 09:05:00,
2013-03-11 04:10:00,63.5,61.2,29.87,North,0,0.0,0.0,92,0.00,,,0.00,WUHU21623XXSP,2013-03-11 09:10:00,
2013-03-11 04:15:00,63.5,61.2,29.87,North,0,0.0,0.0,92,0.00,,,0.00,WUHU21623XXSP,2013-03-11 09:15:00,
2013-03-11 04:20:00,63.5,61.2,29.87,North,0,0.0,0.0,92,0.00,,,0.00,WUHU21623XXSP,2013-03-11 09:20:00,
2013-03-11 04:25:00,63.5,61.2,29.87,North,0,0.0,0.0,92,0.00,,,0.00,WUHU21623XXSP,2013-03-11 09:25:00,
2013-03-11 04:30:00,63.5,61.2,29.87,North,0,0.0,0.0,92,0.00,,,0.00,WUHU21623XXSP,2013-03-11 09:30:00,
2013-03-11 04:35:00,63.7,61.4,29.87,North,0,0.0,0.0,92,0.00,,,0.00,WUHU21623XXSP,2013-03-11 09:35:00,
2013-03-11 04:40:00,63.7,61.4,29.87,North,0,0.0,0.0,92,0.00,,,0.00,WUHU21623XXSP,2013-03-11 09:40:00,
2013-03-11 04:45:00,63.9,61.6,29.87,North,0,0.0,0.0,92,0.00,,,0.00,WUHU21623XXSP,2013-03-11 09:45:00,
2013-03-11 04:50:00,64.0,61.7,29.87,North,0,0.0,0.0,92,0.00,,,0.00,WUHU21623XXSP,2013-03-11 09:50:00,
2013-03-11 04:55:00,64.0,61.7,29.87,North,0,0.0,0.0,92,0.00,,,0.00,WUHU21623XXSP,2013-03-11 09:55:00,
2013-03-11 05:00:00,64.0,61.7,29.87,North,0,0.0,0.0,92,0.00,,,0.00,WUHU21623XXSP,2013-03-11 10:00:00,
2013-03-11 05:05:00,64.2,61.9,29.87,North,0,0.0,0.0,92,0.00,,,0.00,WUHU21623XXSP,2013-03-11 10:05:00,
2013-03-11 05:10:00,64.2,61.9,29.87,North,0,0.0,0.0,92,0.00,,,0.00,WUHU21623XXSP,2013-03-11 10:10:00,
2013-03-11 05:15:00,64.2,61.9,29.87,North,0,0.0,0.0,92,0.00,,,0.00,WUHU21623XXSP,2013-03-11 10:15:00,
2013-03-11 05:20:00,64.2,61.9,29.87,North,0,0.0,0.0,92,0.00,,,0.00,WUHU21623XXSP,2013-03-11 10:20:00,
2013-03-11 05:25:00,64.2,62.2,29.87,North,0,0.0,0.0,93,0.00,,,0.00,WUHU21623XXSP,2013-03-11 10:25:00,
2013-03-11 05:30:00,64.2,61.9,29.87,North,0,0.0,0.0,92,0.00,,,0.00,WUHU21623XXSP,2013-03-11 10:30:00,
2013-03-11 05:35:00,64.6,62.3,29.87,North,0,0.0,0.0,92,0.00,,,0.00,WUHU21623XXSP,2013-03-11 10:35:00,
2013-03-11 05:40:00,64.6,62.5,29.87,North,0,0.0,0.0,93,0.00,,,0.00,WUHU21623XXSP,2013-03-11 10:40:00,
2013-03-11 05:45:00,64.6,62.5,29.87,North,0,0.0,0.0,93,0.00,,,0.00,WUHU21623XXSP,2013-03-11 10:45:00,
2013-03-11 05:50:00,64.6,62.5,29.87,North,0,0.0,0.0,93,0.00,,,0.00,WUHU21623XXSP,2013-03-11 10:50:00,
2013-03-11 05:55:00,64.6,62.5,29.87,North,0,0.0,0.0,93,0.00,,,0.00,WUHU21623XXSP,2013-03-11 10:55:00,
2013-03-11 06:00:00,64.6,62.5,29.87,North,0,0.0,0.0,93,0.00,,,0.00,WUHU21623XXSP,2013-03-11 11:00:00,
2013-03-11 06:05:00,64.6,62.5,29.87,North,0,0.0,0.0,93,0.00,,,0.00,WUHU21623XXSP,2013-03-11 11:05:00,
2013-03-11 06:10:00,64.6,62.5,29.87,North,0,0.0,0.0,93,0.00,,,0.00,WUHU21623XXSP,2013-03-11 11:10:00,
2013-03-11 06:15:00,64.4,62.5,29.87,North,0,0.0,0.0,93,0.00,,,0.00,WUHU21623XXSP,2013-03-11 11:15:00,
2013-03-11 06:20:00,64.2,62.2,29.87,North,0,0.0,0.0,93,0.00,,,0.00,WUHU21623XXSP,2013-03-11 11:20:00,
2013-03-11 06:25:00,64.2,62.2,29.87,North,0,0.0,0.0,93,0.00,,,0.00,WUHU21623XXSP,2013-03-11 11:25:00,
2013-03-11 06:30:00,64.2,62.2,29.86,North,0,0.0,0.0,93,0.00,,,0.00,WUHU21623XXSP,2013-03-11 11:30:00,
2013-03-11 06:35:00,64.0,62.0,29.87,North,0,0.0,0.0,93,0.02,,,0.02,WUHU21623XXSP,2013-03-11 11:35:00,
2013-03-11 06:40:00,64.0,62.0,29.87,North,0,0.0,0.0,93,0.02,,,0.02,WUHU21623XXSP,2013-03-11 11:40:00,
2013-03-11 06:45:00,64.0,62.3,29.87,North,0,0.0,0.0,94,0.02,,,0.02,WUHU21623XXSP,2013-03-11 11:45:00,
2013-03-11 06:50:00,64.0,62.3,29.87,North,0,0.0,0.0,94,0.02,,,0.02,WUHU21623XXSP,2013-03-11 11:50:00,
2013-03-11 06:55:00,64.2,62.3,29.87,North,0,0.0,0.0,94,0.02,,,0.02,WUHU21623XXSP,2013-03-11 11:55:00,
2013-03-11 07:00:00,64.2,62.5,29.87,North,0,0.0,0.0,94,0.02,,,0.02,WUHU21623XXSP,2013-03-11 12:00:00,
2013-03-11 07:05:00,64.2,62.5,29.87,North,0,0.0,0.0,94,0.02,,,0.02,WUHU21623XXSP,2013-03-11 12:05:00,
2013-03-11 07:10:00,64.4,62.7,29.86,North,0,0.0,0.0,94,0.02,,,0.02,WUHU21623XXSP,2013-03-11 12:10:00,
2013-03-11 07:15:00,64.6,62.8,29.87,North,0,0.0,0.0,94,0.02,,,0.02,WUHU21623XXSP,2013-03-11 12:15:00,
2013-03-11 07:20:00,64.6,62.8,29.87,North,0,0.0,0.0,94,0.02,,,0.02,WUHU21623XXSP,2013-03-11 12:20:00,
2013-03-11 07:25:00,64.4,62.7,29.87,North,0,0.0,0.0,94,0.02,,,0.02,WUHU21623XXSP,2013-03-11 12:25:00,
2013-03-11 07:30:00,64.4,62.7,29.87,North,0,0.0,0.0,94,0.02,,,0.02,WUHU21623XXSP,2013-03-11 12:30:00,
2013-03-11 07:35:00,64.4,63.0,29.87,North,0,0.0,0.0,95,0.00,,,0.02,WUHU21623XXSP,2013-03-11 12:35:00,
2013-03-11 07:40:00,64.4,63.0,29.87,North,0,0.0,0.0,95,0.00,,,0.02,WUHU21623XXSP,2013-03-11 12:40:00,
2013-03-11 07:45:00,64.2,62.8,29.87,North,0,0.0,0.0,95,0.00,,,0.02,WUHU21623XXSP,2013-03-11 12:45:00,
2013-03-11 07:50:00,64.2,62.8,29.87,North,0,0.0,0.0,95,0.00,,,0.02,WUHU21623XXSP,2013-03-11 12:50:00,
2013-03-11 07:55:00,64.2,62.8,29.87,North,0,0.0,0.0,95,0.00,,,0.02,WUHU21623XXSP,2013-03-11 12:55:00,
2013-03-11 08:00:00,64.2,62.8,29.87,North,0,0.0,0.0,95,0.00,,,0.02,WUHU21623XXSP,2013-03-11 13:00:00,
2013-03-11 08:05:00,64.6,63.1,29.87,North,0,0.0,0.0,95,0.00,,,0.02,WUHU21623XXSP,2013-03-11 13:05:00,
2013-03-11 08:10:00,64.8,63.3,29.87,North,0,0.0,0.0,95,0.00,,,0.02,WUHU21623XXSP,2013-03-11 13:10:00,
2013-03-11 08:15:00,64.8,63.3,29.87,North,0,0.0,0.0,95,0.00,,,0.02,WUHU21623XXSP,2013-03-11 13:15:00,
2013-03-11 08:20:00,64.9,63.5,29.87,North,0,0.0,0.0,95,0.00,,,0.02,WUHU21623XXSP,2013-03-11 13:20:00,
2013-03-11 08:25:00,64.9,63.5,29.87,North,0,0.0,0.0,95,0.00,,,0.02,WUHU21623XXSP,2013-03-11 13:25:00,
2013-03-11 08:30:00,65.3,63.6,29.85,North,0,0.0,0.0,95,0.00,,,0.02,WUHU21623XXSP,2013-03-11 13:30:00,
2013-03-11 08:35:00,65.5,64.0,29.85,North,0,0.0,0.0,95,0.00,,,0.02,WUHU21623XXSP,2013-03-11 13:35:00,
2013-03-11 08:40:00,65.7,64.0,29.85,North,0,0.0,0.0,95,0.00,,,0.02,WUHU21623XXSP,2013-03-11 13:40:00,
2013-03-11 08:45:00,65.8,64.3,29.86,North,0,0.0,0.0,95,0.00,,,0.02,WUHU21623XXSP,2013-03-11 13:45:00,
2013-03-11 08:50:00,66.0,64.5,29.87,North,0,0.0,0.0,95,0.00,,,0.02,WUHU21623XXSP,2013-03-11 13:50:00,
2013-03-11 08:55:00,66.0,64.5,29.86,North,0,0.0,0.0,95,0.00,,,0.02,WUHU21623XXSP,2013-03-11 13:55:00,
2013-03-11 09:00:00,66.2,64.7,29.89,North,0,0.0,0.0,95,0.00,,,0.02,WUHU21623XXSP,2013-03-11 14:00:00,
2013-03-11 09:05:00,64.8,60.2,29.90,North,0,0.0,0.0,85,0.02,,,0.02,WUHU21623XXSP,2013-03-11 14:05:00,
2013-03-11 09:10:00,63.1,58.5,29.91,North,0,0.0,0.0,85,0.04,,,0.04,WUHU21623XXSP,2013-03-11 14:10:00,
2013-03-11 09:15:00,61.0,57.1,29.91,North,0,0.0,0.0,85,0.12,,,0.10,WUHU21623XXSP,2013-03-11 14:15:00,
2013-03-11 09:20:00,59.5,55.0,29.92,North,0,0.0,0.0,85,0.24,,,0.20,WUHU21623XXSP,2013-03-11 14:20:00,
2013-03-11 09:25:00,58.3,55.0,29.92,North,0,0.0,0.0,87,0.29,,,0.27,WUHU21623XXSP,2013-03-11 14:25:00,
2013-03-11 09:30:00,57.2,54.0,29.91,North,0,0.0,0.0,89,0.29,,,0.31,WUHU21623XXSP,2013-03-11 14:30:00,
2013-03-11 09:35:00,57.2,54.0,29.91,North,0,0.0,0.0,89,0.29,,,0.31,WUHU21623XXSP,2013-03-11 14:35:00,
2013-03-11 09:40:00,57.2,54.0,29.91,North,0,0.0,0.0,89,0.29,,,0.31,WUHU21623XXSP,2013-03-11 14:40:00,
2013-03-11 09:45:00,57.2,54.0,29.91,North,0,0.0,0.0,89,0.29,,,0.31,WUHU21623XXSP,2013-03-11 14:45:00,
2013-03-11 09:52:00,54.7,52.1,29.92,North,0,0.0,0.0,91,0.29,,,0.31,WUHU21623XXSP,2013-03-11 14:52:00,
2013-03-11 09:57:00,54.1,51.5,29.93,North,0,0.0,0.0,91,0.29,,,0.31,WUHU21623XXSP,2013-03-11 14:57:00,
2013-03-11 10:02:00,53.8,51.7,29.93,North,0,0.0,0.0,92,0.29,,,0.31,WUHU21623XXSP,2013-03-11 15:02:00,
2013-03-11 10:07:00,53.8,51.5,29.94,North,0,0.0,0.0,92,0.31,,,0.33,WUHU21623XXSP,2013-03-11 15:07:00,
2013-03-11 10:12:00,53.2,50.9,29.94,North,0,0.0,0.0,92,0.29,,,0.33,WUHU21623XXSP,2013-03-11 15:12:00,
2013-03-11 10:17:00,53.2,50.9,29.94,North,0,0.0,0.0,92,0.29,,,0.33,WUHU21623XXSP,2013-03-11 15:17:00,
2013-03-11 10:22:00,52.9,50.6,29.94,North,0,0.0,0.0,92,0.12,,,0.33,WUHU21623XXSP,2013-03-11 15:22:00,
2013-03-11 10:27:00,52.5,50.2,29.94,North,0,0.0,0.0,92,0.06,,,0.33,WUHU21623XXSP,2013-03-11 15:27:00,
2013-03-11 10:32:00,52.3,49.7,29.94,North,0,0.0,0.0,91,0.02,,,0.33,WUHU21623XXSP,2013-03-11 15:32:00,
2013-03-11 10:37:00,52.3,49.7,29.94,North,0,0.0,0.0,91,0.02,,,0.33,WUHU21623XXSP,2013-03-11 15:37:00,
2013-03-11 10:42:00,52.0,49.4,29.94,North,0,0.0,0.0,91,0.02,,,0.33,WUHU21623XXSP,2013-03-11 15:42:00,
2013-03-11 10:47:00,52.0,49.4,29.93,North,0,0.0,0.0,91,0.02,,,0.33,WUHU21623XXSP,2013-03-11 15:47:00,
2013-03-11 10:52:00,52.0,49.4,29.93,North,0,0.0,0.0,91,0.02,,,0.33,WUHU21623XXSP,2013-03-11 15:52:00,
2013-03-11 10:57:00,52.0,49.4,29.93,North,0,0.0,0.0,91,0.02,,,0.33,WUHU21623XXSP,2013-03-11 15:57:00,
2013-03-11 11:02:00,51.4,49.1,29.93,North,0,0.0,0.0,92,0.02,,,0.33,WUHU21623XXSP,2013-03-11 16:02:00,
2013-03-11 11:07:00,50.9,48.3,29.92,North,0,0.0,0.0,91,0.00,,,0.33,WUHU21623XXSP,2013-03-11 16:07:00,
2013-03-11 11:12:00,50.9,48.6,29.93,North,0,0.0,0.0,92,0.00,,,0.33,WUHU21623XXSP,2013-03-11 16:12:00,
2013-03-11 11:17:00,50.7,48.4,29.93,North,0,0.0,0.0,92,0.00,,,0.33,WUHU21623XXSP,2013-03-11 16:17:00,
2013-03-11 11:22:00,50.7,48.4,29.94,North,0,0.0,0.0,92,0.00,,,0.33,WUHU21623XXSP,2013-03-11 16:22:00,
2013-03-11 11:27:00,50.7,48.4,29.93,North,0,0.0,0.0,92,0.00,,,0.33,WUHU21623XXSP,2013-03-11 16:27:00,
2013-03-11 11:32:00,50.7,48.4,29.94,North,0,0.0,0.0,92,0.00,,,0.33,WUHU21623XXSP,2013-03-11 16:32:00,
2013-03-11 11:37:00,50.7,48.4,29.93,North,0,0.0,0.0,92,0.00,,,0.33,WUHU21623XXSP,2013-03-11 16:37:00,
2013-03-11 11:42:00,50.7,48.4,29.93,North,0,0.0,0.0,92,0.00,,,0.33,WUHU21623XXSP,2013-03-11 16:42:00,
2013-03-11 14:11:00,54.7,50.5,29.88,North,0,0.0,0.0,86,0.00,,,0.33,WUHU21623XXSP,2013-03-11 19:11:00,
2013-03-11 14:16:00,54.7,50.5,29.88,North,0,0.0,0.0,86,0.00,,,0.33,WUHU21623XXSP,2013-03-11 19:16:00,
2013-03-11 14:21:00,55.2,50.7,29.88,North,0,0.0,0.0,86,0.00,,,0.33,WUHU21623XXSP,2013-03-11 19:21:00,
2013-03-11 14:26:00,55.4,50.9,29.88,North,0,0.0,0.0,85,0.02,,,0.35,WUHU21623XXSP,2013-03-11 19:26:00,
2013-03-11 14:31:00,55.6,51.1,29.88,North,0,0.0,0.0,84,0.02,,,0.35,WUHU21623XXSP,2013-03-11 19:31:00,
2013-03-11 14:36:00,55.9,50.8,29.87,North,0,0.0,0.0,83,0.02,,,0.35,WUHU21623XXSP,2013-03-11 19:36:00,
2013-03-11 14:41:00,56.3,50.5,29.87,North,0,0.0,0.0,81,0.02,,,0.35,WUHU21623XXSP,2013-03-11 19:41:00,
2013-03-11 14:46:00,56.1,50.0,29.87,North,0,0.0,0.0,80,0.02,,,0.35,WUHU21623XXSP,2013-03-11 19:46:00,
2013-03-11 14:52:00,56.1,50.3,29.88,North,0,0.0,0.0,81,0.02,,,0.35,WUHU21623XXSP,2013-03-11 19:52:00,
2013-03-11 14:56:00,56.1,50.0,29.88,North,0,0.0,0.0,80,0.02,,,0.35,WUHU21623XXSP,2013-03-11 19:56:00,
2013-03-11 15:02:00,56.1,50.0,29.88,North,0,0.0,0.0,80,0.02,,,0.35,WUHU21623XXSP,2013-03-11 20:02:00,
2013-03-11 15:07:00,55.9,49.8,29.88,North,0,0.0,0.0,80,0.02,,,0.35,WUHU21623XXSP,2013-03-11 20:07:00,
2013-03-11 15:12:00,55.9,49.8,29.87,North,0,0.0,0.0,80,0.02,,,0.35,WUHU21623XXSP,2013-03-11 20:12:00,
2013-03-11 15:17:00,56.1,50.0,29.87,North,0,0.0,0.0,80,0.02,,,0.35,WUHU21623XXSP,2013-03-11 20:17:00,
2013-03-11 15:22:00,56.8,50.4,29.87,North,0,0.0,0.0,80,0.00,,,0.35,WUHU21623XXSP,2013-03-11 20:22:00,
2013-03-11 15:27:00,57.0,50.5,29.87,North,0,0.0,0.0,79,0.00,,,0.35,WUHU21623XXSP,2013-03-11 20:27:00,
2013-03-11 15:32:00,57.6,50.9,29.87,North,0,0.0,0.0,78,0.00,,,0.35,WUHU21623XXSP,2013-03-11 20:32:00,
2013-03-11 15:37:00,57.9,50.7,29.87,North,0,0.0,0.0,77,0.00,,,0.35,WUHU21623XXSP,2013-03-11 20:37:00,
2013-03-11 15:42:00,57.9,50.7,29.87,North,0,0.0,0.0,77,0.00,,,0.35,WUHU21623XXSP,2013-03-11 20:42:00,
2013-03-11 15:47:00,57.9,50.7,29.87,North,0,0.0,0.0,77,0.00,,,0.35,WUHU21623XXSP,2013-03-11 20:47:00,
2013-03-11 15:52:00,57.9,50.0,29.87,North,0,0.0,0.0,75,0.00,,,0.35,WUHU21623XXSP,2013-03-11 20:52:00,
2013-03-11 15:57:00,57.9,49.6,29.87,North,0,0.0,0.0,74,0.00,,,0.35,WUHU21623XXSP,2013-03-11 20:57:00,
2013-03-11 16:02:00,57.9,49.6,29.86,North,0,0.0,0.0,74,0.00,,,0.35,WUHU21623XXSP,2013-03-11 21:02:00,
2013-03-11 16:07:00,57.9,49.3,29.86,North,0,0.0,0.0,73,0.00,,,0.35,WUHU21623XXSP,2013-03-11 21:07:00,
2013-03-11 16:12:00,58.1,49.8,29.87,North,0,0.0,0.0,74,0.00,,,0.35,WUHU21623XXSP,2013-03-11 21:12:00,
2013-03-11 16:17:00,58.1,49.5,29.86,North,0,0.0,0.0,73,0.00,,,0.35,WUHU21623XXSP,2013-03-11 21:17:00,
2013-03-11 16:22:00,58.3,49.6,29.86,North,0,0.0,0.0,72,0.00,,,0.35,WUHU21623XXSP,2013-03-11 21:22:00,
2013-03-11 16:27:00,58.5,49.5,29.87,North,0,0.0,0.0,72,0.00,,,0.35,WUHU21623XXSP,2013-03-11 21:27:00,
2013-03-11 16:32:00,58.8,49.8,29.86,North,0,0.0,0.0,72,0.00,,,0.35,WUHU21623XXSP,2013-03-11 21:32:00,
2013-03-11 16:37:00,58.8,49.8,29.86,North,0,0.0,0.0,72,0.00,,,0.35,WUHU21623XXSP,2013-03-11 21:37:00,
2013-03-11 16:42:00,58.8,49.8,29.87,North,0,0.0,0.0,72,0.00,,,0.35,WUHU21623XXSP,2013-03-11 21:42:00,
2013-03-11 16:47:00,58.6,49.6,29.87,North,0,0.0,0.0,72,0.00,,,0.35,WUHU21623XXSP,2013-03-11 21:47:00,
2013-03-11 16:52:00,58.5,49.5,29.87,North,0,0.0,0.0,72,0.00,,,0.35,WUHU21623XXSP,2013-03-11 21:52:00,
2013-03-11 16:57:00,58.3,49.3,29.87,North,0,0.0,0.0,72,0.00,,,0.35,WUHU21623XXSP,2013-03-11 21:57:00,
2013-03-11 17:02:00,58.6,49.6,29.87,North,0,0.0,0.0,72,0.00,,,0.35,WUHU21623XXSP,2013-03-11 22:02:00,
2013-03-11 17:07:00,58.3,48.9,29.87,North,0,0.0,0.0,71,0.00,,,0.35,WUHU21623XXSP,2013-03-11 22:07:00,
2013-03-11 17:12:00,57.9,48.6,29.87,North,0,0.0,0.0,71,0.00,,,0.35,WUHU21623XXSP,2013-03-11 22:12:00,
2013-03-11 17:17:00,57.4,48.7,29.88,North,0,0.0,0.0,73,0.00,,,0.35,WUHU21623XXSP,2013-03-11 22:17:00,
2013-03-11 17:22:00,57.2,48.6,29.88,North,0,0.0,0.0,73,0.00,,,0.35,WUHU21623XXSP,2013-03-11 22:22:00,
2013-03-11 17:27:00,56.8,48.2,29.89,North,0,0.0,0.0,73,0.00,,,0.35,WUHU21623XXSP,2013-03-11 22:27:00,
2013-03-11 17:32:00,56.3,47.7,29.89,North,0,0.0,0.0,73,0.00,,,0.35,WUHU21623XXSP,2013-03-11 22:32:00,
2013-03-11 17:37:00,55.9,47.4,29.89,North,0,0.0,0.0,73,0.00,,,0.35,WUHU21623XXSP,2013-03-11 22:37:00,
2013-03-11 17:42:00,55.9,47.7,29.89,North,0,0.0,0.0,74,0.00,,,0.35,WUHU21623XXSP,2013-03-11 22:42:00,
2013-03-11 17:47:00,55.4,47.6,29.89,North,0,0.0,0.0,75,0.00,,,0.35,WUHU21623XXSP,2013-03-11 22:47:00,
2013-03-11 17:52:00,55.6,47.7,29.89,North,0,0.0,0.0,75,0.00,,,0.35,WUHU21623XXSP,2013-03-11 22:52:00,
2013-03-11 17:58:00,55.6,47.7,29.90,North,0,0.0,0.0,75,0.00,,,0.35,WUHU21623XXSP,2013-03-11 22:58:00,
2013-03-11 18:03:00,55.6,47.7,29.90,North,0,0.0,0.0,75,0.00,,,0.35,WUHU21623XXSP,2013-03-11 23:03:00,
2013-03-11 18:08:00,55.2,47.4,29.90,North,0,0.0,0.0,75,0.00,,,0.35,WUHU21623XXSP,2013-03-11 23:08:00,
2013-03-11 18:13:00,55.0,47.2,29.90,North,0,0.0,0.0,75,0.00,,,0.35,WUHU21623XXSP,2013-03-11 23:13:00,
2013-03-11 18:18:00,54.7,46.9,29.90,North,0,0.0,0.0,75,0.00,,,0.35,WUHU21623XXSP,2013-03-11 23:18:00,
2013-03-11 18:23:00,54.3,46.5,29.90,North,0,0.0,0.0,75,0.00,,,0.35,WUHU21623XXSP,2013-03-11 23:23:00,
2013-03-11 18:28:00,54.3,46.2,29.90,North,0,0.0,0.0,74,0.00,,,0.35,WUHU21623XXSP,2013-03-11 23:28:00,
2013-03-11 18:33:00,53.8,45.7,29.90,North,0,0.0,0.0,74,0.00,,,0.35,WUHU21623XXSP,2013-03-11 23:33:00,
2013-03-11 18:38:00,53.4,45.3,29.91,North,0,0.0,0.0,74,0.00,,,0.35,WUHU21623XXSP,2013-03-11 23:38:00,
2013-03-11 18:43:00,53.2,45.5,29.91,North,0,0.0,0.0,75,0.00,,,0.35,WUHU21623XXSP,2013-03-11 23:43:00,
2013-03-11 18:48:00,52.9,45.2,29.91,North,0,0.0,0.0,75,0.00,,,0.35,WUHU21623XXSP,2013-03-11 23:48:00,
2013-03-11 18:53:00,52.5,45.2,29.91,North,0,0.0,0.0,76,0.00,,,0.35,WUHU21623XXSP,2013-03-11 23:53:00,
2013-03-11 18:58:00,52.3,45.0,29.91,North,0,0.0,0.0,76,0.00,,,0.35,WUHU21623XXSP,2013-03-11 23:58:00,
2013-03-11 19:03:00,52.2,44.8,29.91,North,0,0.0,0.0,76,0.00,,,0.35,WUHU21623XXSP,2013-03-12 00:03:00,
2013-03-11 19:08:00,51.8,44.8,29.91,North,0,0.0,0.0,77,0.00,,,0.35,WUHU21623XXSP,2013-03-12 00:08:00,
2013-03-11 19:13:00,51.6,44.7,29.91,North,0,0.0,0.0,77,0.00,,,0.35,WUHU21623XXSP,2013-03-12 00:13:00,
2013-03-11 19:18:00,51.4,44.5,29.92,North,0,0.0,0.0,78,0.00,,,0.35,WUHU21623XXSP,2013-03-12 00:18:00,
2013-03-11 19:23:00,51.1,44.5,29.92,North,0,0.0,0.0,78,0.00,,,0.35,WUHU21623XXSP,2013-03-12 00:23:00,
2013-03-11 19:28:00,50.9,44.6,29.92,North,0,0.0,0.0,79,0.00,,,0.35,WUHU21623XXSP,2013-03-12 00:28:00,
2013-03-11 19:33:00,50.7,44.4,29.93,North,0,0.0,0.0,79,0.00,,,0.35,WUHU21623XXSP,2013-03-12 00:33:00,
2013-03-11 19:38:00,50.5,44.3,29.93,North,0,0.0,0.0,79,0.00,,,0.35,WUHU21623XXSP,2013-03-12 00:38:00,
2013-03-11 19:43:00,50.4,44.1,29.93,North,0,0.0,0.0,79,0.00,,,0.35,WUHU21623XXSP,2013-03-12 00:43:00,
2013-03-11 19:48:00,50.2,43.9,29.93,North,0,0.0,0.0,79,0.00,,,0.35,WUHU21623XXSP,2013-03-12 00:48:00,
2013-03-11 19:53:00,49.8,43.9,29.93,North,0,0.0,0.0,80,0.00,,,0.35,WUHU21623XXSP,2013-03-12 00:53:00,
2013-03-11 19:58:00,49.8,43.9,29.93,North,0,0.0,0.0,80,0.00,,,0.35,WUHU21623XXSP,2013-03-12 00:58:00,
2013-03-11 20:03:00,49.6,43.7,29.94,North,0,0.0,0.0,80,0.00,,,0.35,WUHU21623XXSP,2013-03-12 01:03:00,
2013-03-11 20:08:00,49.5,43.8,29.94,North,0,0.0,0.0,81,0.00,,,0.35,WUHU21623XXSP,2013-03-12 01:08:00,
2013-03-11 20:13:00,49.3,43.6,29.94,North,0,0.0,0.0,81,0.00,,,0.35,WUHU21623XXSP,2013-03-12 01:13:00,
2013-03-11 20:18:00,48.9,43.3,29.94,North,0,0.0,0.0,81,0.00,,,0.35,WUHU21623XXSP,2013-03-12 01:18:00,
2013-03-11 20:23:00,48.7,43.3,29.94,North,0,0.0,0.0,81,0.00,,,0.35,WUHU21623XXSP,2013-03-12 01:23:00,
2013-03-11 20:28:00,48.7,43.4,29.94,North,0,0.0,0.0,82,0.00,,,0.35,WUHU21623XXSP,2013-03-12 01:28:00,
2013-03-11 20:33:00,48.4,43.1,29.95,North,0,0.0,0.0,82,0.00,,,0.35,WUHU21623XXSP,2013-03-12 01:33:00,
2013-03-11 20:38:00,48.4,43.1,29.95,North,0,0.0,0.0,82,0.00,,,0.35,WUHU21623XXSP,2013-03-12 01:38:00,
2013-03-11 20:43:00,48.0,43.1,29.95,North,0,0.0,0.0,83,0.00,,,0.35,WUHU21623XXSP,2013-03-12 01:43:00,
2013-03-11 20:48:00,47.8,42.9,29.95,North,0,0.0,0.0,83,0.00,,,0.35,WUHU21623XXSP,2013-03-12 01:48:00,
2013-03-11 20:53:00,47.5,42.5,29.95,North,0,0.0,0.0,83,0.00,,,0.35,WUHU21623XXSP,2013-03-12 01:53:00,
2013-03-11 20:58:00,47.1,42.2,29.96,North,0,0.0,0.0,83,0.00,,,0.35,WUHU21623XXSP,2013-03-12 01:58:00,
2013-03-11 21:03:00,46.8,41.9,29.95,North,0,0.0,0.0,83,0.00,,,0.35,WUHU21623XXSP,2013-03-12 02:03:00,
2013-03-11 21:08:00,46.6,41.7,29.96,North,0,0.0,0.0,83,0.00,,,0.35,WUHU21623XXSP,2013-03-12 02:08:00,
2013-03-11 21:13:00,46.2,41.4,29.96,North,0,0.0,0.0,83,0.00,,,0.35,WUHU21623XXSP,2013-03-12 02:13:00,
2013-03-11 21:18:00,46.0,41.5,29.96,North,0,0.0,0.0,84,0.00,,,0.35,WUHU21623XXSP,2013-03-12 02:18:00,
2013-03-11 21:23:00,45.7,41.1,29.96,North,0,0.0,0.0,84,0.00,,,0.35,WUHU21623XXSP,2013-03-12 02:23:00,
2013-03-11 21:28:00,45.3,40.8,29.97,North,0,0.0,0.0,84,0.00,,,0.35,WUHU21623XXSP,2013-03-12 02:28:00,
2013-03-11 21:33:00,45.1,40.6,29.97,North,0,0.0,0.0,84,0.00,,,0.35,WUHU21623XXSP,2013-03-12 02:33:00,
2013-03-11 21:38:00,44.8,40.5,29.97,North,0,0.0,0.0,85,0.00,,,0.35,WUHU21623XXSP,2013-03-12 02:38:00,
2013-03-11 21:43:00,44.6,40.4,29.97,North,0,0.0,0.0,85,0.00,,,0.35,WUHU21623XXSP,2013-03-12 02:43:00,
2013-03-11 21:48:00,44.4,40.2,29.97,North,0,0.0,0.0,85,0.00,,,0.35,WUHU21623XXSP,2013-03-12 02:48:00,
2013-03-11 21:53:00,44.4,40.2,29.97,North,0,0.0,0.0,85,0.00,,,0.35,WUHU21623XXSP,2013-03-12 02:53:00,
2013-03-11 21:58:00,44.2,40.0,29.98,North,0,0.0,0.0,85,0.00,,,0.35,WUHU21623XXSP,2013-03-12 02:58:00,
2013-03-11 22:03:00,43.9,40.0,29.98,North,0,0.0,0.0,86,0.00,,,0.35,WUHU21623XXSP,2013-03-12 03:03:00,
2013-03-11 22:08:00,43.9,40.0,29.98,North,0,0.0,0.0,86,0.00,,,0.35,WUHU21623XXSP,2013-03-12 03:08:00,
2013-03-11 22:13:00,43.7,40.0,29.98,North,0,0.0,0.0,86,0.00,,,0.35,WUHU21623XXSP,2013-03-12 03:13:00,
2013-03-11 22:18:00,43.7,39.8,29.98,North,0,0.0,0.0,86,0.00,,,0.35,WUHU21623XXSP,2013-03-12 03:18:00,
2013-03-11 22:23:00,43.5,39.8,29.98,North,0,0.0,0.0,86,0.00,,,0.35,WUHU21623XXSP,2013-03-12 03:23:00,
2013-03-11 22:28:00,43.5,39.6,29.99,North,0,0.0,0.0,86,0.00,,,0.35,WUHU21623XXSP,2013-03-12 03:28:00,
2013-03-11 22:33:00,43.5,39.9,29.99,North,0,0.0,0.0,87,0.00,,,0.35,WUHU21623XXSP,2013-03-12 03:33:00,
2013-03-11 22:38:00,43.3,39.7,29.99,North,0,0.0,0.0,87,0.00,,,0.35,WUHU21623XXSP,2013-03-12 03:38:00,
2013-03-11 22:43:00,43.3,39.7,29.99,North,0,0.0,0.0,87,0.00,,,0.35,WUHU21623XXSP,2013-03-12 03:43:00,
2013-03-11 22:48:00,43.2,39.5,29.99,North,0,0.0,0.0,87,0.00,,,0.35,WUHU21623XXSP,2013-03-12 03:48:00,
2013-03-11 22:53:00,43.2,39.5,29.99,North,0,0.0,0.0,87,0.00,,,0.35,WUHU21623XXSP,2013-03-12 03:53:00,
2013-03-11 22:58:00,43.0,39.4,29.99,North,0,0.0,0.0,87,0.00,,,0.35,WUHU21623XXSP,2013-03-12 03:58:00,
2013-03-11 23:00:00,43.0,39.4,29.99,North,0,0.0,0.0,87,0.00,,,0.35,WUHU21623XXSP,2013-03-12 04:00:00,
2013-03-11 23:05:00,43.0,39.4,29.99,North,0,0.0,0.0,87,0.00,,,0.35,WUHU21623XXSP,2013-03-12 04:05:00,
2013-03-11 23:10:00,42.6,39.7,29.99,North,0,0.0,0.0,88,0.00,,,0.35,WUHU21623XXSP,2013-03-12 04:10:00,
2013-03-11 23:15:00,42.6,39.3,29.99,North,0,0.0,0.0,88,0.00,,,0.35,WUHU21623XXSP,2013-03-12 04:15:00,
2013-03-11 23:20:00,42.6,39.3,29.99,North,0,0.0,0.0,88,0.00,,,0.35,WUHU21623XXSP,2013-03-12 04:20:00,
2013-03-11 23:25:00,42.6,39.3,29.99,North,0,0.0,0.0,88,0.00,,,0.35,WUHU21623XXSP,2013-03-12 04:25:00,
2013-03-11 23:30:00,42.4,39.4,29.99,North,0,0.0,0.0,89,0.00,,,0.35,WUHU21623XXSP,2013-03-12 04:30:00,
2013-03-11 23:35:00,42.4,39.4,29.99,North,0,0.0,0.0,89,0.00,,,0.35,WUHU21623XXSP,2013-03-12 04:35:00,
2013-03-11 23:40:00,42.4,39.4,30.00,North,0,0.0,0.0,89,0.00,,,0.35,WUHU21623XXSP,2013-03-12 04:40:00,
2013-03-11 23:45:00,42.4,39.4,30.00,North,0,0.0,0.0,89,0.00,,,0.35,WUHU21623XXSP,2013-03-12 04:45:00,
2013-03-11 23:50:00,42.4,39.4,30.00,North,0,0.0,0.0,89,0.00,,,0.35,WUHU21623XXSP,2013-03-12 04:50:00,
2013-03-11 23:55:00,42.4,39.4,30.00,North,0,0.0,0.0,89,0.00,,,0.35,WUHU21623XXSP,2013-03-12 04:55:00,